Time;durP1;ratioP1;P1;durP2;ratioP2;P2;SDS_P1;SDS_P2;PMS_P1;PMS_P2;Temp;Humidity;BMP_temperature;BMP_pressure;BME280_temperature;BME280_humidity;BME280_pressure;Samples;Min_cycle;Max_cycle;Signal;HPM_P1;HPM_P2
2022/04/10 00:01:18;;;;;;;2.97;1.13;;;;;;;-142.75;100.00;78472.28;5074735;28;20025;-67
2022/04/10 00:03:43;;;;;;;9.88;1.45;;;;;;;-142.75;100.00;78470.31;5074618;28;20039;-66
2022/04/10 00:06:09;;;;;;;6.50;1.38;;;;;;;-142.75;100.00;78472.28;5055151;28;20028;-66
2022/04/10 00:08:34;;;;;;;7.07;2.10;;;;;;;-142.75;100.00;78480.16;5053742;28;20029;-65
2022/04/10 00:10:59;;;;;;;4.45;1.15;;;;;;;-142.75;100.00;78482.13;5053697;28;20043;-66
2022/04/10 00:13:24;;;;;;;2.88;1.00;;;;;;;-142.75;100.00;78486.06;5053342;28;20025;-65
2022/04/10 00:15:50;;;;;;;4.38;1.27;;;;;;;-142.75;100.00;78482.13;5042203;28;20025;-66
2022/04/10 00:18:15;;;;;;;3.13;1.08;;;;;;;-142.75;100.00;78476.22;5033107;28;20027;-65
2022/04/10 00:20:40;;;;;;;6.40;1.10;;;;;;;-142.75;100.00;78480.16;5015501;28;20079;-66
2022/04/10 00:23:06;;;;;;;7.07;1.38;;;;;;;-142.75;100.00;78478.19;5015571;28;20630;-66
2022/04/10 00:25:31;;;;;;;4.75;0.82;;;;;;;-142.75;100.00;78480.16;5033130;28;20115;-66
2022/04/10 00:27:56;;;;;;;5.78;1.05;;;;;;;-142.75;100.00;78472.28;5033024;28;20033;-66
2022/04/10 00:30:22;;;;;;;4.47;1.15;;;;;;;-142.75;100.00;78468.34;5033217;28;20048;-66
2022/04/10 00:32:47;;;;;;;3.45;1.20;;;;;;;-142.75;100.00;78476.22;5033190;28;20029;-66
2022/04/10 00:35:13;;;;;;;6.10;0.80;;;;;;;-142.75;100.00;78464.41;5015372;28;20112;-66
2022/04/10 00:37:39;;;;;;;4.78;1.13;;;;;;;-142.75;100.00;78458.50;5032734;28;20018;-66
2022/04/10 00:40:06;;;;;;;6.68;1.25;;;;;;;-142.75;100.00;78456.53;5032619;28;20057;-66
2022/04/10 00:42:37;;;;;;;6.03;1.30;;;;;;;-142.75;100.00;78460.47;5032652;28;20033;-65
2022/04/10 00:45:05;;;;;;;8.17;1.23;;;;;;;-142.75;100.00;78458.50;5032636;28;20025;-66
2022/04/10 00:47:30;;;;;;;3.90;1.00;;;;;;;-142.75;100.00;78452.59;5015082;28;20727;-66
2022/04/10 00:49:58;;;;;;;5.00;1.20;;;;;;;-142.75;100.00;78450.63;5032279;28;20080;-66
2022/04/10 00:52:25;;;;;;;4.87;1.10;;;;;;;-142.75;100.00;78454.56;5032485;28;20037;-66
2022/04/10 00:54:51;;;;;;;4.57;1.13;;;;;;;-142.75;100.00;78464.41;5032507;28;20108;-66
2022/04/10 00:57:17;;;;;;;1.60;0.90;;;;;;;-142.75;100.00;78470.31;5032576;28;20105;-66
2022/04/10 00:59:42;;;;;;;5.10;1.10;;;;;;;-142.75;100.00;78476.22;5032337;28;20100;-66
2022/04/10 01:02:07;;;;;;;5.50;1.20;;;;;;;-142.75;100.00;78476.22;5039369;28;20033;-66
2022/04/10 01:04:34;;;;;;;7.28;1.60;;;;;;;-142.75;100.00;78474.25;5052122;28;20033;-66
2022/04/10 01:07:00;;;;;;;3.13;0.90;;;;;;;-142.75;100.00;78476.22;5052168;28;20556;-66
2022/04/10 01:09:26;;;;;;;;;;;;;;;-142.75;100.00;78478.19;5052590;28;20483;-66
2022/04/10 01:11:52;;;;;;;3.53;1.17;;;;;;;-142.75;100.00;78476.22;5052339;28;20505;-66
2022/04/10 01:14:18;;;;;;;;;;;;;;;-142.75;100.00;78474.25;5052565;28;20282;-66
2022/04/10 01:16:43;;;;;;;7.47;1.20;;;;;;;-142.75;100.00;78472.28;5052066;28;19921;-65
2022/04/10 01:19:11;;;;;;;4.85;0.88;;;;;;;-142.75;100.00;78480.16;5051690;28;20024;-65
2022/04/10 01:21:42;;;;;;;3.40;1.10;;;;;;;-142.75;100.00;78486.06;5052187;28;20025;-65
2022/04/10 01:24:09;;;;;;;9.17;1.50;;;;;;;-142.75;100.00;78491.97;5014249;28;20419;-65
2022/04/10 01:26:34;;;;;;;7.67;1.50;;;;;;;-142.75;100.00;78495.94;5014359;28;20022;-64
2022/04/10 01:29:05;;;;;;;6.47;1.20;;;;;;;-142.75;100.00;78507.75;5031606;28;20032;-65
2022/04/10 01:31:32;;;;;;;4.87;1.10;;;;;;;-142.75;100.00;78517.59;5031726;28;20291;-65
2022/04/10 01:34:00;;;;;;;1.43;0.63;;;;;;;-142.75;100.00;78527.44;5035179;28;20082;-65
2022/04/10 01:36:28;;;;;;;4.77;1.20;;;;;;;-142.75;100.00;78525.47;5051436;28;20490;-64
2022/04/10 01:38:57;;;;;;;6.10;1.00;;;;;;;-142.75;100.00;78531.38;5051233;28;20028;-65
2022/04/10 01:41:27;;;;;;;2.87;0.70;;;;;;;-142.75;100.00;78531.38;5051458;28;20023;-65
2022/04/10 01:43:54;;;;;;;5.13;1.17;;;;;;;-142.75;100.00;78533.34;5051422;28;20036;-65
2022/04/10 01:46:20;;;;;;;3.63;1.17;;;;;;;-142.75;100.00;78527.44;5052137;28;20025;-65
2022/04/10 01:48:46;;;;;;;6.10;1.27;;;;;;;-142.75;100.00;78523.50;5045861;28;20025;-65
2022/04/10 01:51:12;;;;;;;2.58;0.88;;;;;;;-142.75;100.00;78525.47;5044020;28;20423;-65
2022/04/10 01:53:38;;;;;;;2.55;0.95;;;;;;;-142.75;100.00;78533.34;5051285;28;20025;-64
2022/04/10 01:56:05;;;;;;;6.28;1.00;;;;;;;-142.75;100.00;78523.50;5051069;28;20074;-65
2022/04/10 01:58:31;;;;;;;3.73;1.20;;;;;;;-142.75;100.00;78519.56;5050925;28;20036;-65
2022/04/10 02:00:57;;;;;;;5.00;1.13;;;;;;;-142.75;100.00;78513.66;5051157;28;20060;-65
2022/04/10 02:03:22;;;;;;;4.00;0.73;;;;;;;-142.75;100.00;78519.56;5049719;28;20056;-65
2022/04/10 02:05:48;;;;;;;6.13;1.33;;;;;;;-142.75;100.00;78519.56;5050889;28;20070;-65
2022/04/10 02:08:13;;;;;;;4.88;1.13;;;;;;;-142.75;100.00;78521.53;5033937;28;20730;-65
2022/04/10 02:10:39;;;;;;;5.10;1.05;;;;;;;-142.75;100.00;78527.44;5031094;28;20029;-65
2022/04/10 02:13:04;;;;;;;5.22;1.05;;;;;;;-142.75;100.00;78519.56;5031203;28;20491;-65
2022/04/10 02:15:31;;;;;;;4.00;1.38;;;;;;;-142.75;100.00;78527.44;5030485;28;20118;-65
2022/04/10 02:17:56;;;;;;;5.15;1.05;;;;;;;-142.75;100.00;78541.22;5030838;28;20517;-65
2022/04/10 02:20:21;;;;;;;4.85;1.20;;;;;;;-142.75;100.00;78545.16;5031159;28;20029;-65
2022/04/10 02:22:46;;;;;;;3.13;0.98;;;;;;;-142.75;100.00;78547.13;5031018;28;20022;-66
2022/04/10 02:25:14;;;;;;;5.13;0.87;;;;;;;-142.75;100.00;78543.19;5030974;28;20025;-65
2022/04/10 02:27:39;;;;;;;4.60;1.47;;;;;;;-142.75;100.00;78529.41;5030964;28;20746;-65
2022/04/10 02:30:06;;;;;;;3.80;1.00;;;;;;;-142.75;100.00;78531.38;5030626;28;20036;-65
2022/04/10 02:32:31;;;;;;;6.10;1.13;;;;;;;-142.75;100.00;78539.25;5030950;28;20280;-65
2022/04/10 02:34:56;;;;;;;4.18;1.00;;;;;;;-142.75;100.00;78543.19;5030865;28;20032;-65
2022/04/10 02:37:22;;;;;;;2.78;0.65;;;;;;;-142.75;100.00;78537.28;5030959;28;20029;-65
2022/04/10 02:39:47;;;;;;;2.97;0.95;;;;;;;-142.75;100.00;78541.22;5030709;28;20052;-66
2022/04/10 02:42:12;;;;;;;6.38;1.20;;;;;;;-142.75;100.00;78545.16;5030976;28;20506;-65
2022/04/10 02:44:38;;;;;;;6.83;1.00;;;;;;;-142.75;100.00;78539.25;5013202;28;20041;-65
2022/04/10 02:47:04;;;;;;;4.72;0.93;;;;;;;-142.75;100.00;78539.25;5042949;28;20283;-65
2022/04/10 02:49:29;;;;;;;9.90;1.27;;;;;;;-142.75;100.00;78539.25;5050268;28;20375;-65
2022/04/10 02:51:54;;;;;;;2.75;1.20;;;;;;;-142.75;100.00;78533.34;5050645;28;20464;-66
2022/04/10 02:54:20;;;;;;;2.55;0.93;;;;;;;-142.75;100.00;78527.44;5048922;28;20055;-65
2022/04/10 02:56:45;;;;;;;3.37;0.97;;;;;;;-142.75;100.00;78531.38;5049300;28;20031;-66
2022/04/10 02:59:10;;;;;;;3.83;1.05;;;;;;;-142.75;100.00;78531.38;5050415;28;20275;-65
2022/04/10 03:01:36;;;;;;;3.80;0.97;;;;;;;-142.75;100.00;78535.31;5050500;28;20025;-65
2022/04/10 03:04:01;;;;;;;2.40;1.13;;;;;;;-142.75;100.00;78531.38;5050521;28;20765;-65
2022/04/10 03:06:26;;;;;;;9.13;2.05;;;;;;;-142.75;100.00;78535.31;5050321;28;20406;-65
2022/04/10 03:08:52;;;;;;;4.10;0.97;;;;;;;-142.75;100.00;78537.28;5050619;28;20040;-65
2022/04/10 03:11:18;;;;;;;4.22;1.10;;;;;;;-142.75;100.00;78539.25;5051235;28;20318;-65
2022/04/10 03:13:44;;;;;;;6.13;1.10;;;;;;;-142.75;100.00;78537.28;5050437;28;20075;-65
2022/04/10 03:16:10;;;;;;;;;;;;;;;-142.75;100.00;78535.31;5050545;28;20111;-65
2022/04/10 03:18:35;;;;;;;4.37;1.00;;;;;;;-142.75;100.00;78535.31;5049851;28;19991;-65
2022/04/10 03:21:01;;;;;;;2.97;1.00;;;;;;;-142.75;100.00;78531.38;5050206;28;20100;-65
2022/04/10 03:23:26;;;;;;;4.03;0.90;;;;;;;-142.75;100.00;78539.25;5050161;28;20321;-65
2022/04/10 03:25:51;;;;;;;4.55;0.80;;;;;;;-142.75;100.00;78531.38;5050580;28;20025;-65
2022/04/10 03:28:16;;;;;;;2.40;0.80;;;;;;;-142.75;100.00;78531.38;5054682;28;20021;-65
2022/04/10 03:30:42;;;;;;;5.50;0.93;;;;;;;-142.75;100.00;78533.34;5050451;28;20291;-66
2022/04/10 03:33:07;;;;;;;3.90;1.13;;;;;;;-142.75;100.00;78539.25;5033981;28;20091;-65
2022/04/10 03:35:32;;;;;;;4.93;1.20;;;;;;;-142.75;100.00;78543.19;5034026;28;20053;-65
2022/04/10 03:37:58;;;;;;;3.85;0.90;;;;;;;-142.75;100.00;78543.19;5033892;28;20033;-65
2022/04/10 03:40:23;;;;;;;3.87;1.10;;;;;;;-142.75;100.00;78547.13;5034533;28;20027;-65
2022/04/10 03:42:49;;;;;;;5.25;0.80;;;;;;;-142.75;100.00;78547.13;5053875;28;20275;-65
2022/04/10 03:45:14;;;;;;;2.72;0.70;;;;;;;-142.75;100.00;78547.13;5052425;28;20024;-65
2022/04/10 03:47:39;;;;;;;5.10;0.80;;;;;;;-142.75;100.00;78549.09;5054098;28;20079;-66
2022/04/10 03:50:05;;;;;;;5.27;1.23;;;;;;;-142.75;100.00;78539.25;5053397;28;20062;-66
2022/04/10 03:52:31;;;;;;;;;;;;;;;-142.75;100.00;78535.31;5054061;28;20270;-65
2022/04/10 03:54:56;;;;;;;5.90;0.97;;;;;;;-142.75;100.00;78541.22;5053401;28;20298;-65
2022/04/10 03:57:21;;;;;;;5.07;0.93;;;;;;;-142.75;100.00;78535.31;5053590;28;20032;-66
2022/04/10 03:59:47;;;;;;;5.55;1.05;;;;;;;-142.75;100.00;78543.19;5053147;28;20267;-65
2022/04/10 04:02:16;;;;;;;4.77;1.30;;;;;;;-142.75;100.00;78543.19;5053440;28;20045;-65
2022/04/10 04:04:41;;;;;;;3.83;1.03;;;;;;;-142.75;100.00;78545.16;5053429;28;20477;-65
2022/04/10 04:07:06;;;;;;;3.87;0.87;;;;;;;-142.75;100.00;78553.03;5053312;28;20037;-65
2022/04/10 04:09:32;;;;;;;5.53;1.10;;;;;;;-142.75;100.00;78551.06;5053080;28;20290;-65
2022/04/10 04:11:57;;;;;;;7.97;1.20;;;;;;;-142.75;100.00;78555.00;5051737;28;20032;-65
2022/04/10 04:14:22;;;;;;;7.03;0.90;;;;;;;-142.75;100.00;78551.06;5053139;28;20029;-65
2022/04/10 04:16:48;;;;;;;7.60;1.10;;;;;;;-142.75;100.00;78556.97;5034128;28;20291;-65
2022/04/10 04:19:13;;;;;;;4.33;1.03;;;;;;;-142.75;100.00;78555.00;5032886;28;20742;-66
2022/04/10 04:21:38;;;;;;;4.60;1.27;;;;;;;-142.75;100.00;78558.94;5033116;28;20025;-65
2022/04/10 04:24:04;;;;;;;3.95;0.90;;;;;;;-142.75;100.00;78558.94;5033148;28;20049;-65
2022/04/10 04:26:29;;;;;;;4.80;1.05;;;;;;;-142.75;100.00;78564.84;5032947;28;20033;-65
2022/04/10 04:28:54;;;;;;;5.18;0.98;;;;;;;-142.75;100.00;78562.88;5032757;28;20021;-65
2022/04/10 04:31:20;;;;;;;2.13;0.97;;;;;;;-142.75;100.00;78558.94;5032807;28;20061;-65
2022/04/10 04:33:45;;;;;;;3.60;1.10;;;;;;;-142.75;100.00;78556.97;5015164;28;20343;-65
2022/04/10 04:36:10;;;;;;;7.53;1.23;;;;;;;-142.75;100.00;78560.91;5032854;28;20475;-65
2022/04/10 04:38:35;;;;;;;2.37;0.90;;;;;;;-142.75;100.00;78553.03;5031995;28;20025;-65
2022/04/10 04:41:01;;;;;;;6.03;1.10;;;;;;;-142.75;100.00;78551.06;5016581;28;20025;-65
2022/04/10 04:43:26;;;;;;;3.73;1.03;;;;;;;-142.75;100.00;78555.00;5032738;28;20022;-65
2022/04/10 04:45:51;;;;;;;4.28;1.10;;;;;;;-142.75;100.00;78562.88;5032729;28;20276;-65
2022/04/10 04:48:16;;;;;;;10.40;1.17;;;;;;;-142.75;100.00;78564.84;5050998;28;20017;-65
2022/04/10 04:50:44;;;;;;;3.40;0.82;;;;;;;-142.75;100.00;78566.81;5052303;28;20660;-65
2022/04/10 04:53:09;;;;;;;5.03;1.33;;;;;;;-142.75;100.00;78574.69;5052591;28;20045;-65
2022/04/10 04:55:34;;;;;;;5.38;1.20;;;;;;;-142.75;100.00;78574.69;5045091;28;20060;-65
2022/04/10 04:58:00;;;;;;;1.73;0.90;;;;;;;-142.75;100.00;78570.75;5032274;28;20071;-65
2022/04/10 05:00:25;;;;;;;4.25;1.30;;;;;;;-142.75;100.00;78582.59;5032237;28;20267;-66
2022/04/10 05:02:50;;;;;;;4.43;1.20;;;;;;;-142.75;100.00;78586.53;5031020;28;20037;-65
2022/04/10 05:05:16;;;;;;;4.57;1.15;;;;;;;-142.75;100.00;78582.59;5014515;28;20022;-66
2022/04/10 05:07:41;;;;;;;2.42;0.88;;;;;;;-142.75;100.00;78574.69;5032294;28;20068;-66
2022/04/10 05:10:07;;;;;;;4.03;1.17;;;;;;;-142.75;100.00;78588.50;5013778;28;20061;-66
2022/04/10 05:12:34;;;;;;;4.60;1.17;;;;;;;-142.75;100.00;78586.53;5031898;28;20029;-65
2022/04/10 05:15:00;;;;;;;5.50;1.47;;;;;;;-142.75;100.00;78590.47;5032035;28;20021;-66
2022/04/10 05:17:26;;;;;;;5.38;1.10;;;;;;;-142.75;100.00;78588.50;5031982;28;20075;-65
2022/04/10 05:19:52;;;;;;;4.17;1.20;;;;;;;-142.75;100.00;78592.44;5031802;28;20037;-66
2022/04/10 05:22:18;;;;;;;5.22;0.90;;;;;;;-142.75;100.00;78600.31;5032080;28;20032;-66
2022/04/10 05:24:43;;;;;;;4.65;1.40;;;;;;;-142.75;100.00;78592.44;5031985;28;20096;-66
2022/04/10 05:27:10;;;;;;;7.50;1.08;;;;;;;-142.75;100.00;78590.47;5031906;28;20033;-66
2022/04/10 05:29:36;;;;;;;4.27;1.00;;;;;;;-142.75;100.00;78578.63;5031431;28;20033;-66
2022/04/10 05:32:01;;;;;;;4.03;1.35;;;;;;;-142.75;100.00;78564.84;5031582;28;20032;-66
2022/04/10 05:34:27;;;;;;;6.47;1.42;;;;;;;-142.75;100.00;78555.00;5031719;28;20021;-66
2022/04/10 05:36:52;;;;;;;3.40;1.08;;;;;;;-142.75;100.00;78549.09;5031709;28;20026;-66
2022/04/10 05:39:17;;;;;;;3.20;0.90;;;;;;;-142.75;100.00;78535.31;5031484;28;20021;-66
2022/04/10 05:41:43;;;;;;;2.73;0.93;;;;;;;-142.75;100.00;78539.25;5031730;28;20026;-66
2022/04/10 05:44:09;;;;;;;2.75;1.13;;;;;;;-142.75;100.00;78527.44;5031373;28;20060;-65
2022/04/10 05:46:38;;;;;;;5.00;1.60;;;;;;;-142.75;100.00;78507.75;5031516;28;20072;-66
2022/04/10 05:49:04;;;;;;;3.77;1.20;;;;;;;-142.75;100.00;78497.91;5030923;28;20026;-66
2022/04/10 05:51:29;;;;;;;6.95;1.27;;;;;;;-142.75;100.00;78482.13;5030859;28;20025;-66
2022/04/10 05:53:55;;;;;;;3.63;1.23;;;;;;;-142.75;100.00;78474.25;5031316;28;20041;-66
2022/04/10 05:56:20;;;;;;;5.90;1.20;;;;;;;-142.75;100.00;78460.47;5058010;22;20378;-66
2022/04/10 05:58:45;;;;;;;3.83;1.08;;;;;;;-142.75;100.00;78466.38;5028482;28;20029;-67
2022/04/10 06:01:11;;;;;;;5.80;1.63;;;;;;;-142.75;100.00;78464.41;5030577;28;20017;-67
2022/04/10 06:03:36;;;;;;;4.55;1.17;;;;;;;-142.75;100.00;78456.53;5031033;28;20706;-66
2022/04/10 06:06:02;;;;;;;4.00;0.98;;;;;;;-142.75;100.00;78444.72;5030894;28;20029;-67
2022/04/10 06:08:27;;;;;;;6.95;1.05;;;;;;;-142.75;100.00;78428.97;5030701;28;20079;-67
2022/04/10 06:10:52;;;;;;;4.00;1.02;;;;;;;-142.75;100.00;78391.53;5029685;28;20035;-67
2022/04/10 06:13:19;;;;;;;6.20;1.27;;;;;;;-142.75;100.00;78367.91;5030943;28;20112;-67
2022/04/10 06:15:44;;;;;;;6.00;1.10;;;;;;;-142.75;100.00;78338.38;5049459;28;20025;-67
2022/04/10 06:18:10;;;;;;;3.05;1.40;;;;;;;-142.75;100.00;78320.66;5050618;28;20037;-67
2022/04/10 06:20:35;;;;;;;2.42;0.93;;;;;;;-142.75;100.00;78299.00;5050660;28;20048;-66
2022/04/10 06:23:00;;;;;;;5.10;1.38;;;;;;;-142.75;100.00;78283.22;5033161;28;20514;-66
2022/04/10 06:25:26;;;;;;;1.98;0.93;;;;;;;-142.75;100.00;78263.53;5029384;28;20078;-66
2022/04/10 06:27:51;;;;;;;2.97;1.10;;;;;;;-142.75;100.00;78241.88;5030506;28;20051;-65
2022/04/10 06:30:16;;;;;;;5.65;1.10;;;;;;;-142.75;100.00;78224.16;5030535;28;20032;-67
2022/04/10 06:32:42;;;;;;;11.85;1.98;;;;;;;-142.75;100.00;78210.38;5030734;28;20056;-67
2022/04/10 06:35:08;;;;;;;4.27;1.00;;;;;;;-142.75;100.00;78198.56;5029367;28;20442;-66
2022/04/10 06:37:36;;;;;;;6.63;1.00;;;;;;;-142.75;100.00;78200.53;5049385;28;20795;-66
2022/04/10 06:40:01;;;;;;;7.40;1.20;;;;;;;-142.75;100.00;78176.88;5050370;28;20390;-66
2022/04/10 06:42:27;;;;;;;5.00;1.02;;;;;;;-142.75;100.00;78165.06;5049269;28;20025;-67
2022/04/10 06:44:52;;;;;;;2.30;0.80;;;;;;;-142.75;100.00;78141.44;5050623;28;20147;-67
2022/04/10 06:47:17;;;;;;;3.85;0.93;;;;;;;-142.75;100.00;78137.50;5050343;28;20028;-67
2022/04/10 06:49:42;;;;;;;4.68;0.73;;;;;;;-142.75;100.00;78117.81;5034224;28;20025;-66
2022/04/10 06:52:08;;;;;;;7.20;1.07;;;;;;;-142.75;100.00;78115.84;5030424;28;20025;-66
2022/04/10 06:54:33;;;;;;;6.18;1.27;;;;;;;-142.75;100.00;78115.84;5030526;28;20021;-66
2022/04/10 06:56:58;;;;;;;9.57;0.93;;;;;;;-142.75;100.00;78092.22;5030148;28;20048;-66
2022/04/10 06:59:23;;;;;;;5.97;1.17;;;;;;;-142.75;100.00;78074.50;5030213;28;20025;-67
2022/04/10 07:01:49;;;;;;;6.13;1.10;;;;;;;-142.75;100.00;78050.84;5032489;28;20357;-67
2022/04/10 07:04:14;;;;;;;1.90;0.70;;;;;;;-142.75;100.00;78058.72;5034293;28;20025;-67
2022/04/10 07:06:39;;;;;;;3.13;0.80;;;;;;;-142.75;100.00;78029.19;5034294;28;20075;-67
2022/04/10 07:09:05;;;;;;;7.22;1.25;;;;;;;-142.75;100.00;78062.69;5032768;28;20104;-67
2022/04/10 07:11:31;;;;;;;3.65;1.00;;;;;;;-142.75;100.00;78109.94;5044703;28;20124;-67
2022/04/10 07:13:57;;;;;;;3.37;0.67;;;;;;;-142.75;100.00;78143.41;5054190;28;20025;-68
2022/04/10 07:16:23;;;;;;;3.87;0.70;;;;;;;-142.75;100.00;78123.72;5052782;28;20075;-67
2022/04/10 07:18:49;;;;;;;2.92;0.80;;;;;;;-142.75;100.00;78096.16;5052357;28;20052;-68
2022/04/10 07:21:14;;;;;;;3.53;1.13;;;;;;;-142.75;100.00;78048.88;5053934;28;20063;-67
2022/04/10 07:23:43;;;;;;;3.72;1.25;;;;;;;-142.75;100.00;78029.19;5053926;28;20036;-67
2022/04/10 07:26:10;;;;;;;3.05;0.77;;;;;;;-142.75;100.00;78027.22;5053859;28;20381;-67
2022/04/10 07:28:37;;;;;;;3.17;0.80;;;;;;;-142.75;100.00;77987.84;5053623;28;20033;-67
2022/04/10 07:31:04;;;;;;;5.82;0.90;;;;;;;-142.75;100.00;77976.03;5053714;28;20025;-67
2022/04/10 07:33:29;;;;;;;9.45;2.03;;;;;;;-142.75;100.00;77981.94;5035041;28;20039;-67
2022/04/10 07:35:54;;;;;;;7.10;1.33;;;;;;;-142.75;100.00;77946.50;5033834;28;20127;-67
2022/04/10 07:38:21;;;;;;;4.10;1.10;;;;;;;-142.75;100.00;77970.13;5033433;28;20036;-67
2022/04/10 07:40:46;;;;;;;5.60;0.90;;;;;;;-142.75;100.00;78025.25;5048725;28;20020;-67
2022/04/10 07:43:11;;;;;;;2.15;1.08;;;;;;;-142.75;100.00;78031.16;5053607;28;20025;-68
2022/04/10 07:48:20;;;;;;;4.97;1.27;;;;;;;-142.75;100.00;77989.81;5053485;28;20063;-67
2022/04/10 07:50:46;;;;;;;3.53;0.95;;;;;;;-142.75;100.00;77972.09;5053275;28;20467;-67
2022/04/10 07:53:12;;;;;;;3.92;1.33;;;;;;;-142.75;100.00;77946.50;5052097;28;20024;-67
2022/04/10 07:55:37;;;;;;;5.20;1.00;;;;;;;-142.75;100.00;77922.88;5053076;28;20404;-67
2022/04/10 07:58:02;;;;;;;3.58;1.00;;;;;;;-142.75;100.00;77932.72;5053097;28;20024;-66
2022/04/10 08:00:32;;;;;;;4.32;0.88;;;;;;;-142.75;100.00;77909.06;5053111;28;20025;-66
2022/04/10 08:02:58;;;;;;;4.35;0.70;;;;;;;-142.75;100.00;77916.97;5053235;28;20040;-67
2022/04/10 08:05:23;;;;;;;5.10;1.10;;;;;;;-142.75;100.00;77905.13;5051859;28;20025;-67
2022/04/10 08:07:49;;;;;;;4.05;1.08;;;;;;;-142.75;100.00;77901.19;5053038;28;20037;-66
2022/04/10 08:10:15;;;;;;;3.45;1.08;;;;;;;-142.75;100.00;77901.19;5052952;28;20032;-67
2022/04/10 08:12:41;;;;;;;7.70;1.60;;;;;;;-142.75;100.00;77832.28;5050833;28;20035;-67
2022/04/10 08:15:07;;;;;;;4.35;1.00;;;;;;;-142.75;100.00;77802.75;5052850;28;20029;-67
2022/04/10 08:17:33;;;;;;;3.22;0.65;;;;;;;-142.75;100.00;77783.06;5052894;28;20077;-67
2022/04/10 08:19:58;;;;;;;5.63;0.75;;;;;;;-142.75;100.00;77751.56;5052635;28;20104;-67
2022/04/10 08:22:27;;;;;;;3.17;0.60;;;;;;;-142.75;100.00;77731.88;5052976;28;20028;-67
2022/04/10 08:24:53;;;;;;;7.93;1.30;;;;;;;-142.75;100.00;77731.88;5052728;28;20028;-67
2022/04/10 08:27:19;;;;;;;4.38;0.75;;;;;;;-142.75;100.00;77712.16;5050159;28;20032;-67
2022/04/10 08:29:44;;;;;;;;;;;;;;;-142.75;100.00;77704.28;5051511;28;20031;-67
2022/04/10 08:32:09;;;;;;;4.20;0.88;;;;;;;-142.75;100.00;77696.41;5052562;28;20003;-67
2022/04/10 08:34:35;;;;;;;3.58;0.98;;;;;;;-142.75;100.00;77641.28;5052908;28;20096;-67
2022/04/10 08:37:05;;;;;;;2.97;0.68;;;;;;;-142.75;100.00;77633.41;5051375;28;20021;-67
2022/04/10 08:39:33;;;;;;;4.28;0.57;;;;;;;-142.75;98.61;77603.88;5052301;28;20025;-67
2022/04/10 08:42:04;;;;;;;3.03;0.60;;;;;;;-142.75;98.18;77550.72;5052540;28;20017;-67
2022/04/10 08:44:30;;;;;;;2.45;0.60;;;;;;;-142.75;86.21;77546.78;5052400;28;20114;-66
2022/04/10 08:46:56;;;;;;;;;;;;;;;-142.75;82.10;77649.16;5052753;28;20469;-67
2022/04/10 08:49:24;;;;;;;1.85;0.50;;;;;;;-142.75;81.62;77725.97;5052014;28;19913;-68
2022/04/10 08:51:50;;;;;;;1.92;0.65;;;;;;;-142.75;82.48;77822.44;5052254;28;20112;-68
2022/04/10 08:54:18;;;;;;;3.22;0.50;;;;;;;-142.75;83.75;77889.38;5052258;28;20024;-69
2022/04/10 08:56:43;;;;;;;2.08;0.52;;;;;;;-142.75;83.97;77909.06;5047820;28;20031;-68
2022/04/10 08:59:08;;;;;;;1.77;0.60;;;;;;;-142.75;85.99;77830.31;5049163;28;20128;-68
2022/04/10 09:01:34;;;;;;;3.50;1.02;;;;;;;-142.75;83.06;77763.38;5050292;28;20094;-67
2022/04/10 09:03:59;;;;;;;4.90;0.55;;;;;;;-142.75;77.22;77710.19;5048648;28;20055;-66
2022/04/10 09:06:25;;;;;;;3.63;0.50;;;;;;;-142.75;78.68;77660.97;5050949;28;20029;-67
2022/04/10 09:08:50;;;;;;;8.60;1.13;;;;;;;-142.75;75.70;77601.91;5051111;28;20025;-66
2022/04/10 09:11:15;;;;;;;3.35;0.77;;;;;;;-142.75;76.75;77536.94;5051854;28;20053;-67
2022/04/10 09:13:43;;;;;;;3.03;0.57;;;;;;;-142.75;71.46;77531.03;5051793;28;20021;-66
2022/04/10 09:16:23;;;;;;;3.28;0.68;;;;;;;-142.75;68.79;77540.88;5051747;28;20025;-67
2022/04/10 09:18:51;;;;;;;4.05;0.50;;;;;;;-142.75;67.11;77525.13;5051483;28;20108;-66
2022/04/10 09:21:19;;;;;;;2.20;0.32;;;;;;;-142.75;68.78;77519.22;5051509;28;20017;-66
2022/04/10 09:23:56;;;;;;;2.65;0.35;;;;;;;-142.75;66.23;77570.41;5050267;28;20029;-67
2022/04/10 09:26:21;;;;;;;2.85;0.60;;;;;;;-142.75;65.35;77540.88;5034299;28;20048;-67
2022/04/10 09:28:49;;;;;;;2.90;0.50;;;;;;;-142.75;65.41;77507.41;5038162;28;20080;-67
2022/04/10 09:31:25;;;;;;;2.63;0.60;;;;;;;-142.75;65.65;77495.59;5034744;28;20018;-67
2022/04/10 09:33:50;;;;;;;3.25;0.50;;;;;;;-142.75;63.65;77470.00;5038408;28;20055;-67
2022/04/10 09:36:46;;;;;;;1.20;0.40;;;;;;;-142.75;62.35;77414.84;5036223;28;20053;-67
2022/04/10 09:39:37;;;;;;;2.42;0.80;;;;;;;-142.75;60.79;77381.38;5038781;28;20025;-67
2022/04/10 09:42:05;;;;;;;2.65;0.52;;;;;;;-142.75;59.69;77365.63;5035880;28;20373;-67
2022/04/10 09:44:35;;;;;;;3.47;0.77;;;;;;;-142.75;61.66;77365.63;5031268;28;20068;-67
2022/04/10 09:47:02;;;;;;;3.25;0.60;;;;;;;-142.75;62.33;77507.41;5049067;28;20049;-67
2022/04/10 09:49:32;;;;;;;1.30;0.30;;;;;;;-142.75;64.78;77558.59;5049844;28;20048;-67
2022/04/10 09:52:01;;;;;;;2.30;0.82;;;;;;;-142.75;65.18;77633.41;5049859;28;20094;-67
2022/04/10 09:54:36;;;;;;;6.97;0.55;;;;;;;-142.75;65.00;77676.72;5050071;28;20605;-67
2022/04/10 09:57:04;;;;;;;1.90;0.43;;;;;;;-142.75;64.42;77710.19;5049863;28;20029;-66
2022/04/10 09:59:36;;;;;;;4.88;0.60;;;;;;;-142.75;66.05;77727.94;5049912;28;20537;-67
2022/04/10 10:02:04;;;;;;;1.92;0.73;;;;;;;-142.75;66.41;77702.31;5050154;28;20154;-67
2022/04/10 10:04:36;;;;;;;2.67;0.45;;;;;;;-142.75;65.09;77668.84;5049869;28;20029;-67
2022/04/10 10:07:13;;;;;;;2.50;0.63;;;;;;;-142.75;64.84;77696.41;5049929;28;20073;-66
2022/04/10 10:09:39;;;;;;;3.28;0.40;;;;;;;-142.75;62.72;77613.72;5049322;28;20020;-67
2022/04/10 10:12:06;;;;;;;2.28;0.73;;;;;;;-142.75;63.98;77536.94;5049996;28;20040;-66
2022/04/10 10:14:33;;;;;;;7.05;0.82;;;;;;;-142.75;61.00;77495.59;5049687;28;20513;-66
2022/04/10 10:16:59;;;;;;;3.00;0.55;;;;;;;-142.75;59.57;77487.72;5048404;28;20071;-66
2022/04/10 10:19:26;;;;;;;2.17;0.50;;;;;;;-142.75;59.75;77373.50;5048069;28;20025;-66
2022/04/10 10:21:54;;;;;;;4.32;0.40;;;;;;;-142.75;56.11;77347.91;5048426;28;20024;-67
2022/04/10 10:24:22;;;;;;;0.98;0.32;;;;;;;-142.75;56.98;77267.19;5049730;28;20692;-66
2022/04/10 10:27:05;;;;;;;4.07;0.65;;;;;;;-142.75;53.51;77237.66;5049626;28;20021;-66
2022/04/10 10:30:08;;;;;;;2.70;0.47;;;;;;;-142.75;50.67;77196.31;5048135;28;20104;-67
2022/04/10 10:32:46;;;;;;;2.85;0.60;;;;;;;-142.75;52.32;77204.19;5049516;28;20078;-67
2022/04/10 10:35:30;;;;;;;0.88;0.35;;;;;;;-142.75;54.10;77198.28;5048064;28;20111;-67
2022/04/10 10:37:55;;;;;;;1.95;0.38;;;;;;;-142.75;50.23;77156.94;5049021;28;20033;-66
2022/04/10 10:40:21;;;;;;;3.47;0.70;;;;;;;-142.75;51.73;77133.31;5049540;28;20032;-67
2022/04/10 10:42:50;;;;;;;;;;;;;;;-142.75;50.68;77153.00;5050066;28;20025;-67
2022/04/10 10:45:52;;;;;;;3.60;0.80;;;;;;;-142.75;51.69;77166.78;5049514;28;19913;-68
2022/04/10 10:48:32;;;;;;;3.15;0.60;;;;;;;-142.75;50.37;77180.56;4988277;28;20022;-67
2022/04/10 10:51:22;;;;;;;4.13;0.80;;;;;;;-142.75;52.28;77178.59;5043744;28;20037;-68
2022/04/10 10:53:57;;;;;;;3.22;0.63;;;;;;;-142.75;51.14;77257.34;5027393;28;20053;-70
2022/04/10 10:56:33;;;;;;;1.88;0.55;;;;;;;-142.75;53.05;77204.19;5049095;28;20028;-70
2022/04/10 10:59:25;;;;;;;4.38;0.68;;;;;;;-142.75;50.61;77200.25;5050032;28;20274;-70
2022/04/10 11:02:11;;;;;;;1.77;0.52;;;;;;;-142.75;52.21;77249.47;5050244;28;20047;-68
2022/04/10 11:04:41;;;;;;;4.63;0.88;;;;;;;-142.75;51.73;77282.94;5050385;28;20033;-67
2022/04/10 11:07:14;;;;;;;2.20;0.50;;;;;;;-142.75;54.11;77306.56;5050230;28;20036;-67
2022/04/10 11:10:00;;;;;;;1.65;0.45;;;;;;;-142.75;54.92;77298.69;5049793;28;20029;-67
2022/04/10 11:12:44;;;;;;;4.73;0.57;;;;;;;-142.75;51.39;77204.19;5050241;28;20048;-66
2022/04/10 11:15:23;;;;;;;2.15;0.60;;;;;;;-142.75;47.86;77212.06;5048798;28;20036;-67